createdAt,value
2023-01-07T00:00:02.001Z,1002.78
2023-01-07T00:05:01.431Z,1002.81
2023-01-07T00:10:02.543Z,1002.78
2023-01-07T00:15:01.971Z,1002.75
2023-01-07T00:20:02.165Z,1002.76
2023-01-07T00:25:02.159Z,1002.71
2023-01-07T00:30:02.094Z,1002.66
2023-01-07T00:35:02.211Z,1002.57
2023-01-07T00:40:01.661Z,1002.54
2023-01-07T00:45:01.313Z,1002.51
2023-01-07T00:50:01.578Z,1002.43
2023-01-07T00:55:01.860Z,1002.4
2023-01-07T01:00:01.941Z,1002.36
2023-01-07T01:05:01.422Z,1002.36
2023-01-07T01:10:02.083Z,1002.38
2023-01-07T01:15:01.337Z,1002.37
2023-01-07T01:20:01.920Z,1002.33
2023-01-07T01:25:02.221Z,1002.3
2023-01-07T01:30:01.317Z,1002.31
2023-01-07T01:35:01.565Z,1002.28
2023-01-07T01:40:01.933Z,1002.29
2023-01-07T01:45:01.513Z,1002.28
2023-01-07T01:50:02.217Z,1002.25
2023-01-07T01:55:01.640Z,1002.26
2023-01-07T02:00:01.378Z,1002.13
2023-01-07T02:05:01.801Z,1002.08
2023-01-07T02:10:01.489Z,1002.02
2023-01-07T02:15:01.952Z,1001.94
2023-01-07T02:20:02.278Z,1001.79
2023-01-07T02:25:02.143Z,1001.72
2023-01-07T02:30:02.310Z,1001.76
2023-01-07T02:35:01.588Z,1001.72
2023-01-07T02:40:02.008Z,1001.65
2023-01-07T02:45:02.281Z,1001.61
2023-01-07T02:50:01.428Z,1001.63
2023-01-07T02:55:01.404Z,1001.59
2023-01-07T03:00:01.882Z,1001.59
2023-01-07T03:05:02.171Z,1001.52
2023-01-07T03:10:01.536Z,1001.49
2023-01-07T03:15:02.079Z,1001.55
2023-01-07T03:20:01.586Z,1001.49
2023-01-07T03:25:01.885Z,1001.43
2023-01-07T03:30:01.743Z,1001.43
2023-01-07T03:35:01.338Z,1001.41
2023-01-07T03:40:01.582Z,1001.37
2023-01-07T03:45:01.194Z,1001.41
2023-01-07T03:50:01.940Z,1001.4
2023-01-07T03:55:01.455Z,1001.4
2023-01-07T04:00:02.120Z,1001.39
2023-01-07T04:05:01.516Z,1001.4
2023-01-07T04:10:01.255Z,1001.3
2023-01-07T04:15:01.691Z,1001.18
2023-01-07T04:20:01.773Z,1001.1
2023-01-07T04:25:01.530Z,1001.03
2023-01-07T04:30:01.377Z,1000.98
2023-01-07T04:35:02.082Z,1000.92
2023-01-07T04:40:02.034Z,1000.9
2023-01-07T04:45:01.445Z,1000.88
2023-01-07T04:50:02.029Z,1000.87
2023-01-07T04:55:01.550Z,1000.8
2023-01-07T05:00:01.748Z,1000.82
2023-01-07T05:05:01.384Z,1000.79
2023-01-07T05:10:02.155Z,1000.68
2023-01-07T05:15:01.647Z,1000.66
2023-01-07T05:20:01.825Z,1000.59
2023-01-07T05:25:01.513Z,1000.54
2023-01-07T05:30:02.160Z,1000.56
2023-01-07T05:35:01.747Z,1000.49
2023-01-07T05:40:02.191Z,1000.45
2023-01-07T05:45:01.935Z,1000.38
2023-01-07T05:50:01.538Z,1000.3
2023-01-07T05:55:02.016Z,1000.27
2023-01-07T06:00:01.555Z,1000.25
2023-01-07T06:05:02.124Z,1000.24
2023-01-07T06:10:03.120Z,1000.23
2023-01-07T06:15:01.311Z,1000.16
2023-01-07T06:20:02.187Z,1000.09
2023-01-07T06:25:01.948Z,1000.08
2023-01-07T06:30:01.388Z,1000.07
2023-01-07T06:35:01.740Z,999.99
2023-01-07T06:40:01.559Z,999.81
2023-01-07T06:45:02.220Z,999.83
2023-01-07T06:50:01.671Z,999.72
2023-01-07T06:55:02.209Z,999.65
2023-01-07T07:00:02.026Z,999.6
2023-01-07T07:05:01.859Z,999.57
2023-01-07T07:10:01.691Z,999.6
2023-01-07T07:15:01.302Z,999.5
2023-01-07T07:20:01.419Z,999.45
2023-01-07T07:25:01.970Z,999.5
2023-01-07T07:30:01.437Z,999.4
2023-01-07T07:35:01.894Z,999.41
2023-01-07T07:40:01.493Z,999.32
2023-01-07T07:45:01.264Z,999.22
2023-01-07T07:50:01.431Z,999.17
2023-01-07T07:55:20.230Z,999.05
2023-01-07T08:00:02.180Z,999.05
2023-01-07T08:05:01.322Z,998.97
2023-01-07T08:10:01.423Z,998.89
2023-01-07T08:15:01.761Z,998.86
2023-01-07T08:20:01.346Z,998.81
2023-01-07T08:25:01.890Z,998.83
2023-01-07T08:30:01.856Z,998.83
2023-01-07T08:35:01.672Z,998.71
2023-01-07T08:40:02.575Z,998.74
2023-01-07T08:45:01.866Z,998.64
2023-01-07T08:50:01.693Z,998.64
2023-01-07T08:55:02.262Z,998.61
2023-01-07T09:00:01.657Z,998.52
2023-01-07T09:05:01.868Z,998.51
2023-01-07T09:10:01.676Z,998.4
2023-01-07T09:15:01.339Z,998.35
2023-01-07T09:20:01.779Z,998.27
2023-01-07T09:25:01.690Z,998.2
2023-01-07T09:30:01.650Z,998.22
2023-01-07T09:35:02.126Z,998.15
2023-01-07T09:40:02.002Z,997.99
2023-01-07T09:45:01.685Z,997.94
2023-01-07T09:50:02.174Z,997.99
2023-01-07T09:55:01.680Z,997.94
2023-01-07T10:00:01.679Z,997.93
2023-01-07T10:05:01.332Z,997.93
2023-01-07T10:10:01.448Z,997.77
2023-01-07T10:15:01.966Z,997.77
2023-01-07T10:20:01.454Z,997.82
2023-01-07T10:25:01.644Z,997.73
2023-01-07T10:30:01.625Z,997.72
2023-01-07T10:35:01.866Z,997.74
2023-01-07T10:40:02.088Z,997.68
2023-01-07T10:45:02.247Z,997.61
2023-01-07T10:50:02.110Z,997.56
2023-01-07T10:55:02.135Z,997.46
2023-01-07T11:00:01.328Z,997.36
2023-01-07T11:05:01.814Z,997.32
2023-01-07T11:10:01.507Z,997.21
2023-01-07T11:15:02.170Z,997.1
2023-01-07T11:20:01.669Z,996.98
2023-01-07T11:25:02.067Z,996.97
2023-01-07T11:30:01.337Z,996.84
2023-01-07T11:35:01.518Z,996.79
2023-01-07T11:40:01.948Z,996.49
2023-01-07T11:45:01.572Z,996.48
2023-01-07T11:50:01.471Z,996.28
2023-01-07T11:55:01.819Z,996.18
2023-01-07T12:00:01.952Z,996.01
2023-01-07T12:05:02.266Z,995.83
2023-01-07T12:10:01.609Z,995.67
2023-01-07T12:15:01.814Z,995.61
2023-01-07T12:20:01.859Z,995.52
2023-01-07T12:25:02.040Z,995.52
2023-01-07T12:30:02.160Z,995.42
2023-01-07T12:35:14.988Z,995.44
2023-01-07T12:40:02.106Z,995.4
2023-01-07T12:45:01.784Z,995.24
2023-01-07T12:50:02.244Z,995.25
2023-01-07T12:55:01.485Z,995.17
2023-01-07T13:00:01.361Z,995.07
2023-01-07T13:05:02.114Z,995.01
2023-01-07T13:10:01.985Z,995
2023-01-07T13:15:01.963Z,994.72
2023-01-07T13:20:04.588Z,994.77
2023-01-07T13:25:02.196Z,994.82
2023-01-07T13:30:02.162Z,994.83
2023-01-07T13:35:02.098Z,994.61
2023-01-07T13:40:02.297Z,994.57
2023-01-07T13:45:01.416Z,994.69
2023-01-07T13:50:01.636Z,994.59
2023-01-07T13:55:01.782Z,994.56
2023-01-07T14:00:01.914Z,994.5
2023-01-07T14:05:02.008Z,994.43
2023-01-07T14:10:01.814Z,994.32
2023-01-07T14:15:01.375Z,994.26
2023-01-07T14:20:02.197Z,994.26
2023-01-07T14:25:01.586Z,994.27
2023-01-07T14:30:15.325Z,994.17
2023-01-07T14:35:01.554Z,994.2
2023-01-07T14:40:01.861Z,994.17
2023-01-07T14:45:01.865Z,994.17
2023-01-07T14:50:01.595Z,994.09
2023-01-07T14:55:01.852Z,994.1
2023-01-07T15:00:02.049Z,994.13
2023-01-07T15:05:02.039Z,994.11
2023-01-07T15:10:01.368Z,994.07
2023-01-07T15:15:01.600Z,994.07
2023-01-07T15:20:01.832Z,994.09
2023-01-07T15:25:02.122Z,994.05
2023-01-07T15:30:02.180Z,993.95
2023-01-07T15:35:02.328Z,993.89
2023-01-07T15:40:02.075Z,993.8
2023-01-07T15:45:02.345Z,993.71
2023-01-07T15:50:01.550Z,993.65
2023-01-07T15:55:02.179Z,993.64
2023-01-07T16:00:02.344Z,993.66
2023-01-07T16:05:02.383Z,993.66
2023-01-07T16:10:01.475Z,993.51
2023-01-07T16:15:03.010Z,993.49
2023-01-07T16:20:01.612Z,993.4
2023-01-07T16:25:01.783Z,993.4
2023-01-07T16:30:02.348Z,993.32
2023-01-07T16:35:01.977Z,993.21
2023-01-07T16:40:02.003Z,993.15
2023-01-07T16:45:02.236Z,993.16
2023-01-07T16:50:01.556Z,993
2023-01-07T16:55:01.611Z,993
2023-01-07T17:00:01.947Z,992.97
2023-01-07T17:05:02.183Z,993
2023-01-07T17:10:02.156Z,992.88
2023-01-07T17:15:01.311Z,992.88
2023-01-07T17:20:02.131Z,992.99
2023-01-07T17:25:01.958Z,992.85
2023-01-07T17:30:02.270Z,992.84
2023-01-07T17:35:01.326Z,992.81
2023-01-07T17:40:01.400Z,992.82
2023-01-07T17:45:01.791Z,992.79
2023-01-07T17:50:01.818Z,992.6
2023-01-07T17:55:02.155Z,992.74
2023-01-07T18:00:02.226Z,992.75
2023-01-07T18:05:01.482Z,992.63
2023-01-07T18:10:01.430Z,992.67
2023-01-07T18:15:02.296Z,992.6
2023-01-07T18:20:01.278Z,992.45
2023-01-07T18:25:01.266Z,992.4
2023-01-07T18:30:02.098Z,992.39
2023-01-07T18:35:01.607Z,992.39
2023-01-07T18:40:01.779Z,992.18
2023-01-07T18:45:01.831Z,992.18
2023-01-07T18:50:02.149Z,992.25
2023-01-07T18:55:02.045Z,992.15
2023-01-07T19:00:02.114Z,991.96
2023-01-07T19:05:02.241Z,991.82
2023-01-07T19:10:01.760Z,991.83
2023-01-07T19:15:01.982Z,992.01
2023-01-07T19:20:02.172Z,992.06
2023-01-07T19:25:02.175Z,992
2023-01-07T19:30:02.174Z,992.12
2023-01-07T19:35:01.396Z,992.11
2023-01-07T19:40:01.666Z,992.01
2023-01-07T19:45:01.636Z,992.02
2023-01-07T19:50:02.007Z,992.18
2023-01-07T19:55:02.121Z,992.25
2023-01-07T20:00:02.320Z,992.12
2023-01-07T20:05:01.351Z,992.1
2023-01-07T20:10:01.763Z,992.07
2023-01-07T20:15:02.113Z,992.08
2023-01-07T20:20:01.675Z,992.08
2023-01-07T20:25:01.855Z,992.08
2023-01-07T20:30:02.001Z,992.11
2023-01-07T20:35:01.999Z,991.98
2023-01-07T20:40:02.096Z,991.99
2023-01-07T20:45:01.640Z,992.06
2023-01-07T20:50:01.916Z,991.94
2023-01-07T20:55:02.054Z,991.89
2023-01-07T21:00:02.016Z,991.65
2023-01-07T21:05:01.735Z,991.59
2023-01-07T21:10:01.472Z,991.57
2023-01-07T21:15:01.671Z,991.65
2023-01-07T21:20:02.251Z,991.53
2023-01-07T21:25:01.330Z,991.38
2023-01-07T21:30:03.775Z,991.33
2023-01-07T21:35:02.332Z,991.34
2023-01-07T21:40:02.177Z,991.55
2023-01-07T21:45:01.896Z,991.61
2023-01-07T21:50:01.656Z,991.79
2023-01-07T21:55:02.036Z,991.72
2023-01-07T22:00:02.023Z,991.61
2023-01-07T22:05:01.736Z,991.48
2023-01-07T22:10:01.588Z,991.43
2023-01-07T22:15:01.977Z,991.53
2023-01-07T22:20:01.801Z,991.4
2023-01-07T22:25:01.783Z,991.41
2023-01-07T22:30:01.889Z,991.37
2023-01-07T22:35:02.818Z,991.48
2023-01-07T22:40:02.263Z,991.42
2023-01-07T22:45:02.022Z,991.37
2023-01-07T22:50:01.742Z,991.43
2023-01-07T22:55:02.057Z,991.48
2023-01-07T23:00:02.318Z,991.21
2023-01-07T23:05:02.254Z,991.16
2023-01-07T23:10:02.333Z,991.18
2023-01-07T23:15:01.739Z,991.1
2023-01-07T23:20:02.019Z,991.09
2023-01-07T23:25:01.955Z,991.04
2023-01-07T23:30:02.126Z,990.78
2023-01-07T23:35:01.878Z,990.85
2023-01-07T23:40:02.103Z,990.9
2023-01-07T23:45:02.330Z,990.88
2023-01-07T23:50:02.034Z,990.67
2023-01-07T23:55:01.835Z,990.89
